This is the latest recevied weather packets stored in our database for station/object Aldingen. If no packets are shown the sender has not sent any weather packets the latest 1 day(s).
| Time | Temp. | Humidity | Pressure | Rain* | Wind** | Luminosity | Snow |
|---|---|---|---|---|---|---|---|
| 1836273905 | 13.89° C | 89% | 1022 hPa | 0 mm | 0 m/s | - | - |
| 1778022129 | 8.89° C | 92% | 1008 hPa | 0 mm | 0 m/s | - | - |
| 1778020330 | 8.89° C | 93% | 1008 hPa | 0 mm | 0 m/s | - | - |
| 1778018529 | 8.89° C | 92% | 1008.1 hPa | 0 mm | 0.45 m/s, 112° | - | - |
| 1778016731 | 9.44° C | 90% | 1008.3 hPa | 3.56 mm | 0 m/s | - | - |
| 1778014935 | 10.56° C | 88% | 1008.2 hPa | 3.56 mm | 0.89 m/s, 69° | - | - |
| 1778013129 | 10.56° C | 91% | 1007.9 hPa | 3.56 mm | 1.79 m/s, 108° | - | - |
| 1778011330 | 11.11° C | 90% | 1007.7 hPa | 3.56 mm | 1.34 m/s, 196° | - | - |
| 1778009529 | 11.11° C | 89% | 1007.2 hPa | 3.56 mm | 0.45 m/s, 248° | - | - |
| 1778007735 | 11.67° C | 87% | 1007.3 hPa | 3.56 mm | 0.89 m/s, 210° | - | - |
| 1778005932 | 11.67° C | 87% | 1007.1 hPa | 3.56 mm | 0 m/s | - | - |
| 1778004131 | 12.22° C | 86% | 1006.9 hPa | 3.56 mm | 0.89 m/s, 128° | - | - |
| 1778002330 | 12.22° C | 86% | 1007.1 hPa | 3.56 mm | 0 m/s | - | - |
| 1778000530 | 11.67° C | 86% | 1006.9 hPa | 3.56 mm | 0.89 m/s, 206° | - | - |
| 1777998731 | 11.67° C | 84% | 1006.8 hPa | 3.3 mm | 0.89 m/s, 178° | - | - |
| 1777995130 | 16.11° C | 67% | 1006.1 hPa | 2.03 mm | 1.79 m/s, 226° | - | - |
| 1777993336 | 16.11° C | 67% | 1005.9 hPa | 2.03 mm | 1.34 m/s, 311° | - | - |
| 1777991532 | 15.56° C | 74% | 1006.1 hPa | 2.03 mm | 1.34 m/s, 228° | - | - |
| 1777989730 | 15° C | 77% | 1006.2 hPa | 2.03 mm | 1.79 m/s, 102° | - | - |
| 1777987930 | 13.89° C | 79% | 1006.4 hPa | 2.03 mm | 0.45 m/s, 74° | - | - |
| 1777986130 | 12.78° C | 81% | 1006.9 hPa | 2.03 mm | 0.89 m/s, 130° | - | - |
| 1777984330 | 12.78° C | 83% | 1007.3 hPa | 1.78 mm | 1.79 m/s, 114° | - | - |
| 1777982530 | 12.78° C | 82% | 1007.3 hPa | 1.52 mm | 0 m/s | - | - |
| 1777980730 | 13.33° C | 77% | 1007.4 hPa | 1.27 mm | 0 m/s | - | - |
| 1777978931 | 13.33° C | 82% | 1007.3 hPa | 1.02 mm | 0.89 m/s, 212° | - | - |
* Rain since midnight (hover to see other rain measurements)
** Current wind speed in m/s (hover to see current wind gust speed)